Time;durP1;ratioP1;P1;durP2;ratioP2;P2;SDS_P1;SDS_P2;PMS_P1;PMS_P2;Temp;Humidity;BMP_temperature;BMP_pressure;BME280_temperature;BME280_humidity;BME280_pressure;Samples;Min_cycle;Max_cycle;Signal;HPM_P1;HPM_P2
2022/09/06 00:00:00;;;;;;;4.50;2.30;;;20.90;99.90;;;;;;7335568;19;111037;-72
2022/09/06 00:02:32;;;;;;;4.43;2.60;;;20.90;99.90;;;;;;7337215;19;111121;-72
2022/09/06 00:04:59;;;;;;;3.90;2.50;;;20.90;99.90;;;;;;7342030;19;109409;-72
2022/09/06 00:07:26;;;;;;;4.90;2.70;;;20.90;99.90;;;;;;7339021;19;111532;-72
2022/09/06 00:09:54;;;;;;;6.93;2.63;;;20.90;99.90;;;;;;7335611;19;109391;-72
2022/09/06 00:12:21;;;;;;;6.32;2.50;;;20.90;99.90;;;;;;7337415;19;110981;-71
2022/09/06 00:14:49;;;;;;;4.68;2.97;;;20.80;99.90;;;;;;7337064;19;109759;-72
2022/09/06 00:17:17;;;;;;;8.98;3.25;;;20.70;99.90;;;;;;7338371;19;109748;-72
2022/09/06 00:19:44;;;;;;;4.72;2.65;;;20.60;99.90;;;;;;7336806;19;111752;-72
2022/09/06 00:22:11;;;;;;;3.30;2.42;;;20.60;99.90;;;;;;7335236;19;109972;-72
2022/09/06 00:24:38;;;;;;;4.20;2.30;;;20.60;99.90;;;;;;7336642;19;111474;-72
2022/09/06 00:27:07;;;;;;;3.85;2.08;;;20.70;99.90;;;;;;7340410;19;111206;-71
2022/09/06 00:29:34;;;;;;;7.28;2.00;;;20.70;99.90;;;;;;7336482;19;109578;-72
2022/09/06 00:32:02;;;;;;;2.88;2.30;;;20.70;99.90;;;;;;7335384;19;110741;-72
2022/09/06 00:34:29;;;;;;;6.15;2.70;;;20.70;99.90;;;;;;7334892;19;109552;-72
2022/09/06 00:36:56;;;;;;;3.78;2.63;;;20.60;99.90;;;;;;7335298;19;110568;-73
2022/09/06 00:39:23;;;;;;;3.58;3.03;;;20.60;99.90;;;;;;7334411;19;111131;-72
2022/09/06 00:41:50;;;;;;;5.30;2.25;;;20.70;99.90;;;;;;7337492;19;109440;-72
2022/09/06 00:44:17;;;;;;;2.53;1.90;;;20.60;99.90;;;;;;7334897;19;110094;-72
2022/09/06 00:46:46;;;;;;;5.30;2.30;;;20.60;99.90;;;;;;7335153;19;110095;-72
2022/09/06 00:49:26;;;;;;;4.35;2.25;;;20.60;99.90;;;;;;7342548;19;110101;-72
2022/09/06 00:52:00;;;;;;;2.97;2.30;;;20.60;99.90;;;;;;7335703;19;110235;-72
2022/09/06 00:54:27;;;;;;;3.15;2.55;;;20.60;99.90;;;;;;7336785;19;109215;-72
2022/09/06 00:56:56;;;;;;;3.92;2.50;;;20.60;99.90;;;;;;7336657;19;109812;-72
2022/09/06 00:59:30;;;;;;;3.95;1.98;;;20.60;99.90;;;;;;7335819;19;110124;-72
2022/09/06 01:01:57;;;;;;;3.60;2.63;;;20.60;99.90;;;;;;7343439;19;109242;-71
2022/09/06 01:04:26;;;;;;;4.28;2.78;;;20.60;99.90;;;;;;7341579;19;111612;-72
2022/09/06 01:07:46;;;;;;;6.05;3.15;;;20.60;99.90;;;;;;7340453;19;113058;-72
2022/09/06 01:10:24;;;;;;;;;;;20.60;99.90;;;;;;7340193;19;110237;-72
2022/09/06 01:13:07;;;;;;;6.25;3.50;;;20.50;99.90;;;;;;7351346;19;109175;-72
2022/09/06 01:15:40;;;;;;;4.38;3.80;;;20.40;99.90;;;;;;7344846;19;109064;-72
2022/09/06 01:18:18;;;;;;;4.60;3.20;;;20.40;99.90;;;;;;7343744;19;110465;-73
2022/09/06 01:21:09;;;;;;;4.53;3.30;;;20.50;99.90;;;;;;7342282;19;111195;-72
2022/09/06 01:23:45;;;;;;;5.07;3.42;;;20.50;99.90;;;;;;7342553;19;109502;-72
2022/09/06 01:26:46;;;;;;;5.43;3.20;;;20.50;99.90;;;;;;7342080;19;109442;-72
2022/09/06 01:29:33;;;;;;;4.07;3.00;;;20.50;99.90;;;;;;7340848;19;110231;-72
2022/09/06 01:32:10;;;;;;;6.63;3.60;;;20.60;99.90;;;;;;7342735;19;109325;-72
2022/09/06 01:34:44;;;;;;;5.45;2.90;;;20.50;99.90;;;;;;7343258;19;110466;-72
2022/09/06 01:37:15;;;;;;;4.80;3.28;;;20.50;99.90;;;;;;7347572;19;110440;-72
2022/09/06 01:39:42;;;;;;;4.15;2.78;;;20.60;99.90;;;;;;7339164;19;109805;-72
2022/09/06 01:42:28;;;;;;;5.10;2.13;;;20.60;99.90;;;;;;7342561;19;110123;-72
2022/09/06 01:45:09;;;;;;;4.10;2.63;;;20.50;99.90;;;;;;7343389;19;109867;-72
2022/09/06 01:48:06;;;;;;;6.68;2.53;;;20.50;99.90;;;;;;7339529;19;110793;-73
2022/09/06 01:51:03;;;;;;;3.90;2.90;;;20.60;99.90;;;;;;7339732;19;111567;-72
2022/09/06 01:53:45;;;;;;;3.42;2.60;;;20.60;99.90;;;;;;7342923;19;109577;-73
2022/09/06 01:56:12;;;;;;;5.20;2.75;;;20.60;99.90;;;;;;7342456;19;111553;-73
2022/09/06 01:58:51;;;;;;;7.05;2.72;;;20.50;99.90;;;;;;7341454;19;111191;-73
2022/09/06 02:01:50;;;;;;;4.25;2.63;;;20.50;99.90;;;;;;7347036;19;109376;-73
2022/09/06 02:04:51;;;;;;;6.32;2.65;;;20.50;99.90;;;;;;7341202;19;110602;-73
2022/09/06 02:07:28;;;;;;;4.95;2.90;;;20.50;99.90;;;;;;7340601;19;109955;-73
2022/09/06 02:10:06;;;;;;;3.63;2.47;;;20.40;99.90;;;;;;7342012;19;109533;-73
2022/09/06 02:12:37;;;;;;;3.92;2.58;;;20.40;99.90;;;;;;7340048;19;110397;-74
2022/09/06 02:15:22;;;;;;;4.03;3.60;;;20.40;99.90;;;;;;7341724;19;109283;-73
2022/09/06 02:18:02;;;;;;;5.30;3.15;;;20.40;99.90;;;;;;7341433;19;110376;-73
2022/09/06 02:20:33;;;;;;;4.03;3.30;;;20.30;99.90;;;;;;7341307;19;110147;-73
2022/09/06 02:23:04;;;;;;;5.03;3.35;;;20.30;99.90;;;;;;7346735;19;109354;-73
2022/09/06 02:25:42;;;;;;;6.00;4.00;;;20.30;99.90;;;;;;7340588;19;111750;-73
2022/09/06 02:28:09;;;;;;;6.20;4.47;;;20.30;99.90;;;;;;7342800;19;109390;-72
2022/09/06 02:30:46;;;;;;;6.32;4.78;;;20.20;99.90;;;;;;7340925;19;110595;-73
2022/09/06 02:33:18;;;;;;;5.13;4.63;;;20.20;99.90;;;;;;7340900;19;110230;-73
2022/09/06 02:35:51;;;;;;;5.45;4.95;;;20.20;99.90;;;;;;7341368;19;110011;-73
2022/09/06 02:38:22;;;;;;;7.72;5.93;;;20.10;99.90;;;;;;7340193;19;109685;-72
2022/09/06 02:40:52;;;;;;;7.85;5.32;;;20.00;99.90;;;;;;7340259;19;111186;-73
2022/09/06 02:43:20;;;;;;;5.55;5.05;;;19.90;99.90;;;;;;7340960;19;110218;-73
2022/09/06 02:45:47;;;;;;;5.32;4.03;;;19.90;99.90;;;;;;7344880;19;110850;-73
2022/09/06 02:48:14;;;;;;;6.32;3.97;;;20.00;99.90;;;;;;7338307;19;111428;-73
2022/09/06 02:50:41;;;;;;;6.30;4.43;;;20.00;99.90;;;;;;7339863;19;110224;-73
2022/09/06 02:53:11;;;;;;;6.78;4.05;;;20.00;99.90;;;;;;7340239;19;110030;-73
2022/09/06 02:55:39;;;;;;;7.43;4.63;;;20.00;99.90;;;;;;7339746;19;109371;-73
2022/09/06 02:58:10;;;;;;;6.25;4.13;;;19.90;99.90;;;;;;7336159;19;109996;-73
2022/09/06 03:00:38;;;;;;;4.18;3.53;;;19.80;99.90;;;;;;7337473;19;111496;-73
2022/09/06 03:03:06;;;;;;;10.93;3.90;;;19.80;99.90;;;;;;7336688;19;110640;-78
2022/09/06 03:05:33;;;;;;;4.10;3.67;;;19.80;99.90;;;;;;7335913;19;110421;-77
2022/09/06 03:08:00;;;;;;;5.45;3.08;;;19.80;99.90;;;;;;7342252;19;110731;-77
2022/09/06 03:10:27;;;;;;;5.78;3.58;;;19.80;99.90;;;;;;7339547;19;109798;-77
2022/09/06 03:12:54;;;;;;;3.70;3.17;;;19.80;99.90;;;;;;7339087;19;110469;-77
2022/09/06 03:15:21;;;;;;;6.90;3.78;;;19.70;99.90;;;;;;7340201;19;109669;-77
2022/09/06 03:17:49;;;;;;;6.35;3.70;;;19.70;99.90;;;;;;7339507;19;109747;-77
2022/09/06 03:20:16;;;;;;;7.32;3.83;;;19.60;99.90;;;;;;7339775;19;110195;-77
2022/09/06 03:22:43;;;;;;;7.88;4.07;;;19.50;99.90;;;;;;7337802;19;109770;-77
2022/09/06 03:25:10;;;;;;;5.22;3.78;;;19.50;99.90;;;;;;7337137;19;110162;-77
2022/09/06 03:27:37;;;;;;;4.57;4.10;;;19.50;99.90;;;;;;7337315;19;114635;-78
2022/09/06 03:30:05;;;;;;;5.07;3.88;;;19.40;99.90;;;;;;7344421;19;109317;-78
2022/09/06 03:32:32;;;;;;;7.00;3.92;;;19.50;99.90;;;;;;7339328;19;114832;-78
2022/09/06 03:34:59;;;;;;;5.45;4.10;;;19.50;99.90;;;;;;7338168;19;109624;-77
2022/09/06 03:37:27;;;;;;;5.40;3.45;;;19.40;99.90;;;;;;7336915;19;110370;-78
2022/09/06 03:39:54;;;;;;;8.05;4.22;;;19.40;99.90;;;;;;7338029;19;110840;-77
2022/09/06 03:42:21;;;;;;;9.50;3.50;;;19.40;99.90;;;;;;7338833;19;110143;-77
2022/09/06 03:44:48;;;;;;;5.68;3.42;;;19.30;99.90;;;;;;7338484;19;109928;-77
2022/09/06 03:47:15;;;;;;;5.03;4.10;;;19.30;99.90;;;;;;7335633;19;114772;-77
2022/09/06 03:49:46;;;;;;;6.25;4.15;;;19.30;99.90;;;;;;7338751;19;109802;-77
2022/09/06 03:52:13;;;;;;;4.70;4.00;;;19.30;99.90;;;;;;7342741;19;112543;-77
2022/09/06 03:54:40;;;;;;;4.65;3.92;;;19.30;99.90;;;;;;7337441;19;110522;-78
2022/09/06 03:57:08;;;;;;;5.75;4.40;;;19.20;99.90;;;;;;7337018;19;109411;-77
2022/09/06 03:59:35;;;;;;;7.82;4.18;;;19.10;99.90;;;;;;7337714;19;111184;-77
2022/09/06 04:02:03;;;;;;;4.32;3.80;;;19.10;99.90;;;;;;7336999;19;109373;-77
2022/09/06 04:04:30;;;;;;;5.03;3.92;;;19.10;99.90;;;;;;7336868;19;109822;-78
2022/09/06 04:06:57;;;;;;;6.07;3.83;;;19.10;99.90;;;;;;7338165;19;111516;-77
2022/09/06 04:09:24;;;;;;;4.93;4.43;;;19.00;99.90;;;;;;7338551;19;109691;-77
2022/09/06 04:11:51;;;;;;;5.22;4.47;;;18.90;99.90;;;;;;7342983;19;110489;-77
2022/09/06 04:14:18;;;;;;;6.30;4.53;;;18.80;99.90;;;;;;7336930;19;109639;-77
2022/09/06 04:16:45;;;;;;;5.28;4.78;;;18.80;99.90;;;;;;7338346;19;112622;-77
2022/09/06 04:19:12;;;;;;;7.10;5.38;;;18.80;99.90;;;;;;7337190;19;110181;-77
2022/09/06 04:21:39;;;;;;;4.95;4.45;;;18.80;99.90;;;;;;7337893;19;110783;-77
2022/09/06 04:24:07;;;;;;;4.78;4.32;;;18.80;99.90;;;;;;7337698;19;111720;-77
2022/09/06 04:26:34;;;;;;;5.18;4.38;;;18.70;99.90;;;;;;7335807;19;110201;-77
2022/09/06 04:29:01;;;;;;;5.20;4.28;;;18.70;99.90;;;;;;7336797;19;111150;-77
2022/09/06 04:31:28;;;;;;;5.55;4.43;;;18.70;99.90;;;;;;7335067;19;112750;-77
2022/09/06 04:33:55;;;;;;;6.32;4.88;;;18.60;99.90;;;;;;7343645;19;112438;-77
2022/09/06 04:36:22;;;;;;;6.47;5.82;;;18.60;99.90;;;;;;7341929;19;109713;-77
2022/09/06 04:38:49;;;;;;;5.97;5.38;;;18.60;99.90;;;;;;7343632;19;109926;-77
2022/09/06 04:41:17;;;;;;;7.78;5.60;;;18.50;99.90;;;;;;7343645;19;109422;-77
2022/09/06 04:43:44;;;;;;;10.13;5.10;;;18.50;99.90;;;;;;7342478;19;111454;-77
2022/09/06 04:46:24;;;;;;;8.02;5.43;;;18.40;99.90;;;;;;7341818;19;112993;-77
2022/09/06 04:48:53;;;;;;;8.80;6.03;;;18.40;99.90;;;;;;7344150;19;109500;-77
2022/09/06 04:51:21;;;;;;;8.15;4.70;;;18.50;99.90;;;;;;7343783;19;110002;-77
2022/09/06 04:53:48;;;;;;;6.50;4.68;;;18.50;99.90;;;;;;7343123;19;111876;-77
2022/09/06 04:56:18;;;;;;;5.95;5.45;;;18.50;99.90;;;;;;7348683;19;109357;-77
2022/09/06 04:58:47;;;;;;;10.40;4.57;;;18.60;99.90;;;;;;7344039;19;111547;-77
2022/09/06 05:01:14;;;;;;;7.82;4.63;;;18.60;99.90;;;;;;7342109;19;109410;-77
2022/09/06 05:03:41;;;;;;;12.93;5.47;;;18.60;99.90;;;;;;7340850;19;111191;-77
2022/09/06 05:06:11;;;;;;;4.93;4.47;;;18.60;99.90;;;;;;7340600;19;111239;-77
2022/09/06 05:08:40;;;;;;;8.93;5.22;;;18.70;99.90;;;;;;7341404;19;109812;-77
2022/09/06 05:11:07;;;;;;;7.63;5.60;;;18.70;99.90;;;;;;7342423;19;109887;-77
2022/09/06 05:13:34;;;;;;;7.82;5.15;;;18.70;99.90;;;;;;7341451;19;110491;-77
2022/09/06 05:16:06;;;;;;;5.40;4.90;;;18.60;99.90;;;;;;7343779;19;110328;-78
2022/09/06 05:18:34;;;;;;;6.28;5.20;;;18.60;99.90;;;;;;7348156;19;110333;-77
2022/09/06 05:21:01;;;;;;;8.13;4.72;;;18.60;99.90;;;;;;7343220;19;109564;-77
2022/09/06 05:23:28;;;;;;;7.03;6.20;;;18.60;99.90;;;;;;7342717;19;109970;-77
2022/09/06 05:25:55;;;;;;;8.80;5.10;;;18.60;99.90;;;;;;7342869;19;112530;-77
2022/09/06 05:28:22;;;;;;;6.70;5.70;;;18.60;99.90;;;;;;7339731;19;111846;-77
2022/09/06 05:30:49;;;;;;;5.82;5.32;;;18.60;99.90;;;;;;7343805;19;110349;-78
2022/09/06 05:33:21;;;;;;;6.13;5.07;;;18.60;99.90;;;;;;7341294;19;110474;-77
2022/09/06 05:35:48;;;;;;;9.95;5.72;;;18.60;99.90;;;;;;7343616;19;110068;-78
2022/09/06 05:38:15;;;;;;;8.23;5.15;;;18.60;99.90;;;;;;7342643;19;110963;-77
2022/09/06 05:40:43;;;;;;;6.50;5.18;;;18.70;99.90;;;;;;7347167;19;110127;-77
2022/09/06 05:43:10;;;;;;;8.13;6.03;;;18.70;99.90;;;;;;7341479;19;109388;-77
2022/09/06 05:45:37;;;;;;;8.63;6.35;;;18.70;99.90;;;;;;7341171;19;110151;-77
2022/09/06 05:48:04;;;;;;;6.95;6.25;;;18.80;99.90;;;;;;7339547;19;111431;-77
2022/09/06 05:50:31;;;;;;;10.95;6.45;;;18.80;99.90;;;;;;7341715;19;109405;-77
2022/09/06 05:52:58;;;;;;;7.80;6.40;;;18.80;99.90;;;;;;7340940;19;112273;-77
2022/09/06 05:55:25;;;;;;;11.10;6.50;;;18.80;99.90;;;;;;7339470;19;109571;-77
2022/09/06 05:57:52;;;;;;;8.02;6.63;;;18.90;99.90;;;;;;7342114;19;110661;-77
2022/09/06 06:00:19;;;;;;;12.65;8.18;;;18.90;99.90;;;;;;7339113;19;110634;-76
2022/09/06 06:02:47;;;;;;;9.95;6.80;;;19.00;99.90;;;;;;7341942;19;109256;-77
2022/09/06 06:05:15;;;;;;;8.23;7.43;;;19.00;99.90;;;;;;7340733;19;110560;-77
2022/09/06 06:07:42;;;;;;;8.90;7.53;;;19.10;99.90;;;;;;7339773;19;109353;-78
2022/09/06 06:10:09;;;;;;;12.52;8.93;;;19.10;99.90;;;;;;7340877;19;110425;-77
2022/09/06 06:12:36;;;;;;;11.85;8.50;;;19.20;99.90;;;;;;7339805;19;111234;-77
2022/09/06 06:15:04;;;;;;;13.50;9.25;;;19.20;99.90;;;;;;7342960;19;110346;-77
2022/09/06 06:17:32;;;;;;;12.10;9.15;;;19.20;99.90;;;;;;7342500;19;109624;-78
2022/09/06 06:19:59;;;;;;;15.05;8.57;;;19.30;99.90;;;;;;7342218;19;111080;-77
2022/09/06 06:22:26;;;;;;;10.90;8.98;;;19.30;99.90;;;;;;7346694;19;110380;-77
2022/09/06 06:24:53;;;;;;;11.13;9.25;;;19.40;99.90;;;;;;7341563;19;111901;-75
2022/09/06 06:27:20;;;;;;;12.60;9.15;;;19.40;99.90;;;;;;7340234;19;110276;-77
2022/09/06 06:29:47;;;;;;;13.13;8.32;;;19.50;99.90;;;;;;7339167;19;109921;-77
2022/09/06 06:32:14;;;;;;;9.15;8.18;;;19.50;99.90;;;;;;7341396;19;112652;-78
2022/09/06 06:34:42;;;;;;;11.32;8.02;;;19.60;99.90;;;;;;7340101;19;109461;-77
2022/09/06 06:37:08;;;;;;;14.75;8.93;;;19.70;99.90;;;;;;7339206;19;110237;-77
2022/09/06 06:39:37;;;;;;;9.25;8.00;;;19.70;99.90;;;;;;7340500;19;110129;-76
2022/09/06 06:42:04;;;;;;;11.20;8.70;;;19.80;99.90;;;;;;7338079;19;110314;-77
2022/09/06 06:44:31;;;;;;;9.43;7.72;;;19.90;99.90;;;;;;7345852;19;109795;-77
2022/09/06 06:47:00;;;;;;;10.30;7.63;;;20.00;99.90;;;;;;7341152;19;109463;-78
2022/09/06 06:49:28;;;;;;;15.82;8.60;;;20.10;99.90;;;;;;7338611;19;114093;-77
2022/09/06 06:51:56;;;;;;;10.23;7.72;;;20.10;99.90;;;;;;7337539;19;114553;-77
2022/09/06 06:54:23;;;;;;;8.43;7.18;;;20.20;99.90;;;;;;7341253;19;109434;-78
2022/09/06 06:56:50;;;;;;;6.95;6.25;;;20.30;99.90;;;;;;7338205;19;110818;-77
2022/09/06 06:59:18;;;;;;;7.82;6.65;;;20.40;99.90;;;;;;7341956;19;110690;-77
2022/09/06 07:01:45;;;;;;;11.23;6.65;;;20.50;99.90;;;;;;7338588;19;109616;-77
2022/09/06 07:04:13;;;;;;;9.23;6.57;;;20.60;99.90;;;;;;7341452;19;109427;-77
2022/09/06 07:07:06;;;;;;;8.98;6.85;;;20.60;99.90;;;;;;7345112;19;114420;-78
2022/09/06 07:09:53;;;;;;;13.80;6.82;;;20.80;99.90;;;;;;7339264;19;110156;-76
2022/09/06 07:12:40;;;;;;;11.00;5.72;;;20.80;99.90;;;;;;7338668;19;110008;-78
2022/09/06 07:15:08;;;;;;;8.15;6.32;;;20.90;99.90;;;;;;7340517;19;109399;-78
2022/09/06 07:17:35;;;;;;;9.27;6.10;;;21.00;99.90;;;;;;7340820;19;110642;-77
2022/09/06 07:20:02;;;;;;;8.15;5.80;;;21.10;99.90;;;;;;7340460;19;111497;-79
2022/09/06 07:22:39;;;;;;;6.35;5.60;;;21.10;99.90;;;;;;7340791;19;109711;-78
2022/09/06 07:25:08;;;;;;;8.18;5.10;;;21.20;99.90;;;;;;7338508;19;109475;-77
2022/09/06 07:27:35;;;;;;;8.25;4.90;;;21.30;99.90;;;;;;7339338;19;109902;-79
2022/09/06 07:30:18;;;;;;;5.30;4.80;;;21.50;99.90;;;;;;7343346;19;110135;-78
2022/09/06 07:32:46;;;;;;;7.10;4.60;;;21.50;99.90;;;;;;7338709;19;111280;-78
2022/09/06 07:35:13;;;;;;;6.20;4.20;;;21.60;99.90;;;;;;7339118;19;110097;-78
2022/09/06 07:37:40;;;;;;;7.25;4.18;;;21.70;99.90;;;;;;7340597;19;109988;-78
2022/09/06 07:40:08;;;;;;;4.97;4.30;;;21.80;99.90;;;;;;7339936;19;111244;-78
2022/09/06 07:42:36;;;;;;;5.70;4.10;;;21.90;99.90;;;;;;7338942;19;109560;-78
2022/09/06 07:45:04;;;;;;;10.68;5.00;;;22.00;99.90;;;;;;7340280;19;109811;-79
2022/09/06 07:47:31;;;;;;;4.78;4.35;;;22.10;99.90;;;;;;7340221;19;110533;-78
2022/09/06 07:50:18;;;;;;;5.90;4.05;;;22.20;99.90;;;;;;7339882;19;109382;-78
2022/09/06 07:53:07;;;;;;;7.28;4.32;;;22.30;99.90;;;;;;7343126;19;109550;-79
2022/09/06 07:55:41;;;;;;;6.35;3.63;;;22.40;99.90;;;;;;7339676;19;109811;-79
2022/09/06 07:58:08;;;;;;;4.72;3.22;;;22.40;99.90;;;;;;7340219;19;110488;-79
2022/09/06 08:00:37;;;;;;;5.10;3.45;;;22.50;99.90;;;;;;7338088;19;111183;-79
2022/09/06 08:03:04;;;;;;;7.57;3.25;;;22.60;99.90;;;;;;7337533;19;109348;-79
2022/09/06 08:05:31;;;;;;;9.13;3.10;;;22.70;99.90;;;;;;7339056;19;110573;-79
2022/09/06 08:08:18;;;;;;;6.82;3.10;;;22.70;99.90;;;;;;7340084;19;110091;-77
2022/09/06 08:11:06;;;;;;;5.63;2.50;;;22.80;99.90;;;;;;7346165;19;109454;-77
2022/09/06 08:13:35;;;;;;;5.90;2.17;;;22.90;99.90;;;;;;7347145;19;110486;-78
2022/09/06 08:16:07;;;;;;;3.90;2.30;;;23.00;99.90;;;;;;7351729;19;110555;-78
2022/09/06 08:18:35;;;;;;;3.40;1.83;;;23.00;99.90;;;;;;7346804;19;109483;-79
2022/09/06 08:21:13;;;;;;;3.28;1.90;;;23.10;99.90;;;;;;7346406;19;111109;-77
2022/09/06 08:23:45;;;;;;;6.35;2.00;;;23.10;99.90;;;;;;7345591;19;109109;-80
2022/09/06 08:26:12;;;;;;;6.00;1.88;;;23.20;99.90;;;;;;7345958;19;109813;-77
2022/09/06 08:28:39;;;;;;;2.90;1.98;;;23.20;99.90;;;;;;7345171;19;111638;-77
2022/09/06 08:31:07;;;;;;;4.15;2.00;;;23.30;99.90;;;;;;7346350;19;109262;-79
2022/09/06 08:33:34;;;;;;;4.85;2.20;;;23.40;99.90;;;;;;7345361;19;109482;-77
2022/09/06 08:36:01;;;;;;;4.38;1.88;;;23.50;99.90;;;;;;7349425;19;110168;-78
2022/09/06 08:38:29;;;;;;;5.28;2.20;;;23.50;99.90;;;;;;7345952;19;110470;-78
2022/09/06 08:41:23;;;;;;;3.80;2.22;;;23.60;99.90;;;;;;7343738;19;110614;-78
2022/09/06 08:44:03;;;;;;;3.67;1.80;;;23.70;99.90;;;;;;7345170;19;109314;-78
2022/09/06 08:47:01;;;;;;;4.07;2.10;;;23.80;99.90;;;;;;7342365;19;110101;-77
2022/09/06 08:49:31;;;;;;;6.38;1.67;;;23.80;99.90;;;;;;7343876;19;113792;-77
2022/09/06 08:52:37;;;;;;;4.40;1.92;;;23.80;99.90;;;;;;7345539;19;109923;-78
2022/09/06 08:55:44;;;;;;;5.03;2.03;;;23.90;99.90;;;;;;7343649;19;112249;-77
2022/09/06 08:58:39;;;;;;;6.25;2.20;;;24.10;99.90;;;;;;7343260;19;110732;-78
2022/09/06 09:01:12;;;;;;;4.55;2.35;;;24.10;99.90;;;;;;7347087;19;109801;-78
2022/09/06 09:03:42;;;;;;;3.80;1.90;;;24.10;99.90;;;;;;7341028;19;110403;-77
2022/09/06 09:06:10;;;;;;;3.80;1.73;;;24.30;99.90;;;;;;7341971;19;109321;-77
2022/09/06 09:08:58;;;;;;;4.40;2.00;;;24.30;99.90;;;;;;7341961;19;109613;-78
2022/09/06 09:11:25;;;;;;;4.80;2.22;;;24.40;99.90;;;;;;7343468;19;111217;-78
2022/09/06 09:13:59;;;;;;;4.65;2.08;;;24.50;99.90;;;;;;7343706;19;109761;-78
2022/09/06 09:16:26;;;;;;;7.32;1.90;;;24.60;99.90;;;;;;7342311;19;110535;-78
2022/09/06 09:18:58;;;;;;;3.53;1.95;;;24.60;99.90;;;;;;7343350;19;110069;-78
2022/09/06 09:21:26;;;;;;;4.70;2.22;;;24.70;99.90;;;;;;7341753;19;109422;-78
2022/09/06 09:24:02;;;;;;;4.28;1.77;;;24.80;99.90;;;;;;7347097;19;109906;-78
2022/09/06 09:26:52;;;;;;;5.90;1.88;;;24.80;99.90;;;;;;7340565;19;109494;-78
2022/09/06 09:29:19;;;;;;;2.58;1.70;;;24.90;99.90;;;;;;7342322;19;110864;-78
2022/09/06 09:31:54;;;;;;;8.02;2.15;;;25.10;99.90;;;;;;7343236;19;111158;-78
2022/09/06 09:34:41;;;;;;;5.20;1.73;;;25.10;99.90;;;;;;7344469;19;109459;-77
2022/09/06 09:37:28;;;;;;;9.38;2.13;;;25.30;99.90;;;;;;7343124;19;110327;-78
2022/09/06 09:40:29;;;;;;;3.25;2.08;;;25.30;99.90;;;;;;7343967;19;110482;-78
2022/09/06 09:43:17;;;;;;;4.30;2.22;;;25.30;99.90;;;;;;7342889;19;109611;-79
2022/09/06 09:45:55;;;;;;;5.13;2.03;;;25.40;99.90;;;;;;7342847;19;109451;-78
2022/09/06 09:48:28;;;;;;;7.10;2.35;;;25.50;99.90;;;;;;7347519;19;111646;-78
2022/09/06 09:50:55;;;;;;;7.15;2.45;;;25.60;99.90;;;;;;7342802;19;109911;-78
2022/09/06 09:53:23;;;;;;;3.90;2.45;;;25.70;99.90;;;;;;7341632;19;110484;-77
2022/09/06 09:55:56;;;;;;;3.03;2.08;;;25.80;99.90;;;;;;7340921;19;109861;-76
2022/09/06 09:58:30;;;;;;;4.47;2.30;;;25.90;99.90;;;;;;7341870;19;110441;-78
2022/09/06 10:01:16;;;;;;;4.38;2.50;;;25.90;99.90;;;;;;7342526;19;116378;-78
2022/09/06 10:03:43;;;;;;;5.93;2.33;;;26.00;99.90;;;;;;7340091;19;109425;-77
2022/09/06 10:06:30;;;;;;;5.70;2.78;;;26.00;99.90;;;;;;7341394;19;109823;-76
2022/09/06 10:09:21;;;;;;;6.85;2.67;;;26.00;99.90;;;;;;7339918;19;110688;-77
2022/09/06 10:11:56;;;;;;;8.27;2.60;;;26.10;99.90;;;;;;7347175;19;111540;-77
2022/09/06 10:14:31;;;;;;;6.28;2.90;;;26.20;99.90;;;;;;7342516;19;111421;-77
2022/09/06 10:16:59;;;;;;;7.18;2.63;;;26.30;99.90;;;;;;7341965;19;109692;-76
2022/09/06 10:19:32;;;;;;;4.55;3.00;;;26.40;99.90;;;;;;7341911;19;110269;-77
2022/09/06 10:22:10;;;;;;;4.45;2.92;;;26.50;99.90;;;;;;7341772;19;111822;-77
2022/09/06 10:24:58;;;;;;;4.57;2.88;;;26.50;99.90;;;;;;7341604;19;109470;-78
2022/09/06 10:27:26;;;;;;;9.57;2.75;;;26.60;99.90;;;;;;7340542;19;109693;-76
2022/09/06 10:30:06;;;;;;;6.60;2.80;;;26.60;99.90;;;;;;7338186;19;110148;-77
2022/09/06 10:32:39;;;;;;;4.85;2.63;;;26.80;99.90;;;;;;7337741;19;109688;-77
2022/09/06 10:35:12;;;;;;;7.78;2.70;;;26.80;99.90;;;;;;7346862;19;109417;-77
2022/09/06 10:37:52;;;;;;;5.47;2.33;;;26.80;99.90;;;;;;7340738;19;109429;-76
2022/09/06 10:40:33;;;;;;;4.65;2.53;;;26.80;99.90;;;;;;7341174;19;109326;-77
2022/09/06 10:43:02;;;;;;;3.33;2.00;;;26.90;99.70;;;;;;7340404;19;110194;-77
2022/09/06 10:45:47;;;;;;;5.07;2.28;;;26.90;99.60;;;;;;7341400;19;109653;-76
2022/09/06 10:48:26;;;;;;;6.70;2.20;;;27.00;99.10;;;;;;7338757;19;109626;-76
2022/09/06 10:51:09;;;;;;;4.13;2.17;;;27.00;99.20;;;;;;7338150;19;110487;-76
2022/09/06 10:53:56;;;;;;;4.82;1.60;;;27.00;98.90;;;;;;7339483;19;111340;-75
2022/09/06 10:56:45;;;;;;;2.75;1.70;;;27.00;98.50;;;;;;7343029;19;110642;-76
2022/09/06 10:59:12;;;;;;;6.60;1.95;;;27.00;98.20;;;;;;7341372;19;109379;-76
2022/09/06 11:02:05;;;;;;;5.07;1.85;;;27.00;98.30;;;;;;7339327;19;109399;-77
2022/09/06 11:04:37;;;;;;;6.68;2.03;;;27.10;98.20;;;;;;7339790;19;110517;-76
2022/09/06 11:07:49;;;;;;;5.57;1.55;;;27.10;98.20;;;;;;7339955;19;111450;-76
2022/09/06 11:10:39;;;;;;;2.45;1.80;;;27.10;98.00;;;;;;7338165;19;109827;-75
2022/09/06 11:13:15;;;;;;;7.30;1.50;;;27.20;98.10;;;;;;7340021;19;112531;-78
2022/09/06 11:16:05;;;;;;;4.28;1.95;;;27.30;98.30;;;;;;7341051;19;109442;-77
2022/09/06 11:19:08;;;;;;;5.95;2.30;;;27.30;97.30;;;;;;7340021;19;110104;-77
2022/09/06 11:22:07;;;;;;;8.20;1.50;;;27.20;97.80;;;;;;7342218;19;111066;-77
2022/09/06 11:24:43;;;;;;;2.97;1.60;;;27.30;98.00;;;;;;7335990;19;109893;-77
2022/09/06 11:27:13;;;;;;;6.50;1.70;;;27.50;97.70;;;;;;7335268;19;110469;-77
2022/09/06 11:29:44;;;;;;;5.60;1.50;;;27.60;97.60;;;;;;7334331;19;109760;-76
2022/09/06 11:32:32;;;;;;;2.65;1.63;;;27.70;97.20;;;;;;7336002;19;110481;-77
2022/09/06 11:35:03;;;;;;;4.45;1.60;;;27.90;97.00;;;;;;7335079;19;110464;-77
2022/09/06 11:37:34;;;;;;;6.13;1.67;;;27.90;96.30;;;;;;7336204;19;109693;-77
2022/09/06 11:40:11;;;;;;;2.58;1.50;;;27.90;96.30;;;;;;7335964;19;110679;-77
2022/09/06 11:42:54;;;;;;;2.50;1.52;;;28.00;96.40;;;;;;7333817;19;110904;-77
2022/09/06 11:45:47;;;;;;;3.58;1.48;;;28.20;96.70;;;;;;7340124;19;109291;-75
2022/09/06 11:48:25;;;;;;;3.85;1.17;;;28.40;96.30;;;;;;7334752;19;111691;-77
2022/09/06 11:50:58;;;;;;;8.02;1.20;;;28.60;95.10;;;;;;7333019;19;109628;-75
2022/09/06 11:53:35;;;;;;;4.07;1.70;;;28.70;95.00;;;;;;7332626;19;112583;-76
2022/09/06 11:56:02;;;;;;;4.30;1.40;;;28.80;94.80;;;;;;7337597;19;111562;-77
2022/09/06 11:58:38;;;;;;;6.47;1.20;;;28.80;95.00;;;;;;7339630;19;109832;-77
2022/09/06 12:01:12;;;;;;;;;;;28.90;95.20;;;;;;7339476;19;111095;-77
2022/09/06 12:03:41;;;;;;;2.00;1.25;;;29.10;94.80;;;;;;7338898;19;110856;-77
2022/09/06 12:06:34;;;;;;;2.22;1.10;;;29.10;94.00;;;;;;7338883;19;110435;-75
2022/09/06 12:09:21;;;;;;;2.63;1.13;;;29.30;93.40;;;;;;7343933;19;109528;-76
2022/09/06 12:11:50;;;;;;;;;;;29.40;93.50;;;;;;7340191;19;110996;-75
2022/09/06 12:14:47;;;;;;;2.42;1.48;;;29.40;93.40;;;;;;7341287;19;109835;-77
2022/09/06 12:17:13;;;;;;;2.92;1.42;;;29.60;93.50;;;;;;7339211;19;113367;-76
2022/09/06 12:19:52;;;;;;;4.47;1.25;;;29.70;93.20;;;;;;7339045;19;109776;-76
2022/09/06 12:22:28;;;;;;;5.63;1.30;;;29.90;93.00;;;;;;7339025;19;110771;-76
2022/09/06 12:24:56;;;;;;;4.00;1.20;;;30.00;92.40;;;;;;7339225;19;111657;-77
2022/09/06 12:27:27;;;;;;;5.00;1.23;;;30.10;92.20;;;;;;7332284;19;109602;-77
2022/09/06 12:30:00;;;;;;;6.07;1.30;;;30.20;92.10;;;;;;7333100;19;109851;-77
2022/09/06 12:32:34;;;;;;;3.00;1.15;;;30.60;91.20;;;;;;7343077;19;111120;-77
2022/09/06 12:35:13;;;;;;;7.88;1.85;;;30.80;91.60;;;;;;7336676;19;110155;-77
2022/09/06 12:38:05;;;;;;;4.03;1.30;;;31.20;89.40;;;;;;7336348;19;111296;-77
2022/09/06 12:40:44;;;;;;;5.65;1.40;;;31.30;89.50;;;;;;7336656;19;109581;-78
2022/09/06 12:43:14;;;;;;;2.35;1.00;;;31.30;89.70;;;;;;7335505;19;110776;-77
2022/09/06 12:45:46;;;;;;;2.80;1.10;;;31.50;90.10;;;;;;7335657;19;114370;-77
2022/09/06 12:48:27;;;;;;;2.53;1.20;;;31.90;88.60;;;;;;7334761;19;110969;-77
2022/09/06 12:51:02;;;;;;;2.65;1.20;;;32.10;86.90;;;;;;7334897;19;110831;-76
2022/09/06 12:53:31;;;;;;;4.18;1.23;;;32.30;85.80;;;;;;7336514;19;111565;-76
2022/09/06 12:56:06;;;;;;;2.92;1.27;;;32.30;83.50;;;;;;7345757;19;109157;-76
2022/09/06 12:58:34;;;;;;;2.85;1.02;;;32.30;83.40;;;;;;7342125;19;111320;-74
2022/09/06 13:01:15;;;;;;;3.35;1.13;;;32.20;83.00;;;;;;7343803;19;109811;-76
2022/09/06 13:04:07;;;;;;;2.70;1.42;;;32.20;83.00;;;;;;7339476;19;110554;-76
2022/09/06 13:06:44;;;;;;;3.20;1.20;;;32.50;83.00;;;;;;7344468;19;111559;-76